Aeroporto :
LOGIN :

Iscrizione | Disclaimer

   EN    FR    IT 

 










Sommario :    VFR   VFR Marginale   IFR   IFR Intensivo   IFR Molto Intensivo
Visibilità : 
Base nubi : 
>= 8 km
>= 3000ft
5 / 8 km
1000 / 3000 ft
1500m / 5 km
500 / 1000 ft
800 / 1500m
200 / 500 ft
< 800m
< 200 ft
Simboli :   Temporali  Nebbia  Neve Forte  Precipitazioni Forti  Vento > 20 kt
SIGMETs :   Varie  Temporali  Ghiacco  Turbolenza  Onda orograficha  Ceneri Vulcaniche






- Altitudine del aeroporto : 16 ft
- Codice IATA : SDR


LEXJ - Santander Cantabria

ULTIMO METAR :
  • 230030Z AUTO 08003KT 040V140 2900 BR OVC008 11/09 Q1034

METARs OBSOLETI :
  • 230000Z AUTO VRB01KT 3100 BR OVC008 11/09 Q1034
  • 222330Z AUTO 00000KT 3900 BR OVC009 11/09 Q1034
  • 222300Z AUTO 15005KT 120V200 4300 BR OVC010 11/09 Q1035
  • 222230Z AUTO 17004KT 140V210 4700 BR OVC010 12/10 Q1035
  • 222200Z 17004KT 140V200 5000 BR OVC012 12/10 Q1035

TAF TAF LEXJ
Valido dal 22 a 21 ore il 23 a 21 ore UTC


222000Z 2221/2321 VRB03KT CAVOK TX16/2313Z TN05/2307Z
TEMPO 2221/2311 3000 BR BKN008
TEMPO 2221/2310 0350 FG VV001



MetMap, La meteo Aeronautica in un colpo d'occhio ! - Copyright ORBIFLY Dicembre 2007 - Disclaimer

ORBIFLY MET'MAP TEAM :

Programmazione e sviluppo : Alexandra Zaïnal
Concezione : Baudouin d'Aumeries
Aiuto per la programmazione : Marc-Olivier Méhu
Supporto tecnico e logistico : Manuel Goepfert
Aiuto per la traduzione : Arnaldo La Scala

Contatto : metmap@orbifly.com




FONTI E CREDITI :

   NOAA